Time;durP1;ratioP1;P1;durP2;ratioP2;P2;SDS_P1;SDS_P2;PMS_P1;PMS_P2;Temp;Humidity;BMP_temperature;BMP_pressure;BME280_temperature;BME280_humidity;BME280_pressure;Samples;Min_cycle;Max_cycle;Signal;HPM_P1;HPM_P2
2022/06/21 00:02:25;;;;;;;0.73;0.32;;;;;;;29.80;28.89;97596.97;5087728;28;20036;-78
2022/06/21 00:04:53;;;;;;;1.33;0.30;;;;;;;29.50;29.48;97617.91;5081019;28;20035;-77
2022/06/21 00:07:23;;;;;;;0.30;0.30;;;;;;;29.36;29.72;97610.16;5079144;28;20088;-77
2022/06/21 00:09:50;;;;;;;0.43;0.38;;;;;;;30.31;28.38;97610.03;5075382;28;20017;-78
2022/06/21 00:12:16;;;;;;;0.30;0.30;;;;;;;30.38;28.26;97624.63;5084273;28;20116;-77
2022/06/21 00:14:43;;;;;;;1.15;0.30;;;;;;;30.39;28.60;97625.38;5077104;28;20032;-77
2022/06/21 00:17:13;;;;;;;1.45;0.30;;;;;;;29.79;29.09;97635.03;5078975;28;20036;-78
2022/06/21 00:19:43;;;;;;;3.70;0.67;;;;;;;29.56;29.70;97632.19;5080643;28;20480;-77
2022/06/21 00:22:14;;;;;;;1.35;0.40;;;;;;;29.82;29.03;97641.78;5084331;28;20480;-78
2022/06/21 00:24:40;;;;;;;2.72;0.30;;;;;;;29.72;29.17;97648.75;5077166;28;20037;-77
2022/06/21 00:27:21;;;;;;;0.52;0.32;;;;;;;29.40;29.64;97645.50;5079307;28;20469;-77
2022/06/21 00:29:47;;;;;;;1.95;0.30;;;;;;;29.62;29.15;97641.56;5096181;28;20056;-77
2022/06/21 00:32:16;;;;;;;2.58;0.40;;;;;;;29.56;29.39;97643.50;5071431;28;20040;-77
2022/06/21 00:34:44;;;;;;;1.60;0.20;;;;;;;29.78;29.28;97644.03;5081008;28;20040;-77
2022/06/21 00:37:19;;;;;;;2.70;0.80;;;;;;;30.03;28.79;97637.84;5082711;28;20605;-77
2022/06/21 00:39:46;;;;;;;1.00;0.40;;;;;;;30.47;28.36;97635.84;5080569;28;20028;-77
2022/06/21 00:42:29;;;;;;;1.15;0.50;;;;;;;30.49;28.32;97635.34;5078615;28;20517;-77
2022/06/21 00:44:58;;;;;;;0.43;0.43;;;;;;;29.51;29.51;97635.69;5076332;28;20032;-77
2022/06/21 00:47:36;;;;;;;1.55;0.50;;;;;;;30.19;28.67;97637.38;5075024;28;20059;-77
2022/06/21 00:50:19;;;;;;;5.10;1.80;;;;;;;30.64;27.95;97641.81;5076746;28;20033;-77
2022/06/21 00:52:57;;;;;;;0.60;0.60;;;;;;;30.82;27.89;97646.47;5078463;28;20040;-78
2022/06/21 00:55:44;;;;;;;0.40;0.40;;;;;;;30.50;28.08;97646.19;5079296;28;20028;-77
2022/06/21 00:58:13;;;;;;;1.00;0.50;;;;;;;30.48;28.08;97645.91;5077176;28;20040;-77
2022/06/21 01:01:04;;;;;;;0.73;0.52;;;;;;;30.77;27.78;97648.75;5076776;28;20041;-77
2022/06/21 01:03:44;;;;;;;1.38;1.00;;;;;;;30.81;27.16;97642.09;5095396;27;20024;-77
2022/06/21 01:06:19;;;;;;;2.70;0.50;;;;;;;30.76;27.59;97635.81;5078756;28;20032;-77
2022/06/21 01:08:50;;;;;;;1.02;0.60;;;;;;;30.88;27.80;97645.31;5079122;28;20032;-77
2022/06/21 01:11:24;;;;;;;7.85;0.60;;;;;;;30.55;27.67;97637.00;5075042;28;20450;-77
2022/06/21 01:13:55;;;;;;;0.77;0.50;;;;;;;30.24;27.88;97633.06;5076126;28;20362;-77
2022/06/21 01:16:24;;;;;;;1.83;0.82;;;;;;;30.41;28.46;97637.78;5076954;28;20032;-77
2022/06/21 01:18:50;;;;;;;0.80;0.60;;;;;;;30.34;28.08;97634.59;5075030;28;20024;-77
2022/06/21 01:21:20;;;;;;;0.82;0.60;;;;;;;30.51;28.00;97642.09;5079548;28;20093;-77
2022/06/21 01:24:19;;;;;;;0.90;0.65;;;;;;;29.67;28.72;97633.22;5075943;28;20449;-77
2022/06/21 01:26:51;;;;;;;0.80;0.80;;;;;;;29.78;28.36;97632.72;5077549;28;20032;-77
2022/06/21 01:29:21;;;;;;;3.83;0.93;;;;;;;29.24;28.63;97628.16;5078608;28;20040;-77
2022/06/21 01:31:48;;;;;;;1.60;1.27;;;;;;;29.05;29.42;97629.50;5078417;28;20035;-77
2022/06/21 01:34:20;;;;;;;1.88;0.68;;;;;;;28.90;29.54;97629.41;5081727;28;20380;-77
2022/06/21 01:36:55;;;;;;;1.25;1.15;;;;;;;28.86;29.43;97628.78;5080226;28;20025;-77
2022/06/21 01:39:26;;;;;;;0.90;0.70;;;;;;;28.90;29.16;97632.22;5064381;28;20388;-77
2022/06/21 01:41:58;;;;;;;1.83;1.13;;;;;;;29.40;28.54;97633.41;5089496;28;20165;-77
2022/06/21 01:44:30;;;;;;;0.95;0.80;;;;;;;28.77;29.51;97628.06;5081471;28;20072;-77
2022/06/21 01:47:00;;;;;;;1.35;0.75;;;;;;;29.15;28.72;97633.84;5082104;28;20086;-77
2022/06/21 01:49:31;;;;;;;1.10;1.00;;;;;;;28.53;29.29;97628.72;5081933;28;20071;-77
2022/06/21 01:52:02;;;;;;;2.13;0.70;;;;;;;29.44;28.63;97636.84;5083070;28;20040;-76
2022/06/21 01:54:48;;;;;;;1.13;0.82;;;;;;;29.11;28.16;97636.84;5083543;28;20036;-77
2022/06/21 01:57:14;;;;;;;1.10;1.00;;;;;;;28.23;30.11;97643.84;5077650;28;20784;-77
2022/06/21 01:59:47;;;;;;;2.55;1.42;;;;;;;28.73;29.11;97645.16;5080495;28;20428;-77
2022/06/21 02:02:19;;;;;;;2.13;1.08;;;;;;;28.67;29.26;97647.88;5083706;28;20025;-77
2022/06/21 02:04:52;;;;;;;1.98;0.98;;;;;;;28.68;29.01;97648.66;5091356;28;20031;-76
2022/06/21 02:07:24;;;;;;;0.85;0.85;;;;;;;28.50;28.95;97660.75;5075021;28;20041;-77
2022/06/21 02:10:06;;;;;;;2.20;1.10;;;;;;;28.56;28.73;97658.84;5087740;28;20071;-76
2022/06/21 02:12:34;;;;;;;1.27;0.90;;;;;;;28.47;28.89;97663.75;5094977;28;20035;-76
2022/06/21 02:15:06;;;;;;;1.40;1.10;;;;;;;29.32;27.82;97671.78;5084812;28;20366;-76
2022/06/21 02:17:40;;;;;;;2.35;0.90;;;;;;;29.63;27.27;97671.44;5084089;28;20032;-76
2022/06/21 02:20:37;;;;;;;2.22;0.90;;;;;;;29.80;26.87;97673.38;5078595;28;20035;-76
2022/06/21 02:23:05;;;;;;;0.73;0.73;;;;;;;29.60;27.09;97669.56;5080119;28;20054;-77
2022/06/21 02:25:33;;;;;;;0.93;0.70;;;;;;;30.03;26.72;97681.09;5081598;28;20036;-76
2022/06/21 02:28:05;;;;;;;2.65;0.70;;;;;;;29.93;26.79;97678.81;5081658;28;20119;-76
2022/06/21 02:30:32;;;;;;;0.75;0.75;;;;;;;30.08;26.11;97674.72;5081015;28;20040;-77
2022/06/21 02:33:01;;;;;;;0.70;0.70;;;;;;;29.83;26.71;97680.91;5080113;28;20028;-77
2022/06/21 02:35:39;;;;;;;0.82;0.57;;;;;;;29.69;26.92;97684.44;5080036;28;20039;-77
2022/06/21 02:38:12;;;;;;;0.68;0.68;;;;;;;29.92;26.57;97682.91;5076032;28;20052;-77
2022/06/21 02:40:48;;;;;;;0.88;0.70;;;;;;;30.11;26.16;97672.97;5082373;28;20111;-77
2022/06/21 02:43:41;;;;;;;0.88;0.80;;;;;;;30.05;26.56;97667.22;5083895;28;20094;-77
2022/06/21 02:46:12;;;;;;;0.80;0.80;;;;;;;29.94;26.56;97671.88;5081513;28;20064;-77
2022/06/21 02:49:04;;;;;;;0.85;0.80;;;;;;;30.02;26.33;97673.06;5077507;28;20035;-77
2022/06/21 02:51:38;;;;;;;1.05;0.77;;;;;;;29.97;26.53;97679.38;5083229;28;20028;-77
2022/06/21 02:54:19;;;;;;;0.88;0.85;;;;;;;29.72;26.50;97677.03;5077351;28;20031;-77
2022/06/21 02:57:22;;;;;;;4.40;2.45;;;;;;;29.80;26.61;97683.94;5083401;28;20051;-77
2022/06/21 02:59:50;;;;;;;0.90;0.90;;;;;;;28.86;27.87;97682.50;5064225;28;20040;-77
2022/06/21 03:02:23;;;;;;;1.00;0.90;;;;;;;29.46;27.33;97688.06;5084150;28;20752;-77
2022/06/21 03:05:01;;;;;;;0.68;0.68;;;;;;;29.91;26.82;97684.97;5075050;28;20017;-77
2022/06/21 03:07:31;;;;;;;1.08;0.98;;;;;;;29.86;26.87;97690.50;5074917;28;20033;-77
2022/06/21 03:09:58;;;;;;;1.02;0.90;;;;;;;29.78;26.79;97690.06;5075907;28;20040;-77
2022/06/21 03:12:29;;;;;;;1.48;0.90;;;;;;;29.47;27.22;97688.84;5076834;28;20113;-76
2022/06/21 03:15:02;;;;;;;;;;;;;;;28.88;27.99;97694.09;5073863;28;20036;-77
2022/06/21 03:18:01;;;;;;;1.00;0.95;;;;;;;28.96;27.87;97694.56;5075755;28;20437;-77
2022/06/21 03:20:29;;;;;;;1.20;0.90;;;;;;;29.26;27.26;97683.00;5073582;28;20438;-77
2022/06/21 03:22:56;;;;;;;0.60;0.60;;;;;;;28.97;27.78;97690.44;5087335;28;20028;-76
2022/06/21 03:25:42;;;;;;;1.23;1.13;;;;;;;28.75;28.29;97702.75;5077582;28;20047;-76
2022/06/21 03:28:31;;;;;;;1.20;1.10;;;;;;;28.51;28.43;97699.03;5073144;28;20043;-76
2022/06/21 03:31:28;;;;;;;1.27;1.17;;;;;;;28.83;28.07;97708.88;5090970;28;20093;-76
2022/06/21 03:34:00;;;;;;;3.50;1.15;;;;;;;28.79;27.78;97702.59;5076769;28;20048;-76
2022/06/21 03:36:27;;;;;;;2.10;1.05;;;;;;;28.79;27.73;97710.28;5071717;28;20044;-76
2022/06/21 03:41:42;;;;;;;1.33;1.10;;;;;;;29.15;27.48;97708.13;5072283;28;20368;-76
2022/06/21 03:42:13;;;;;;;3.80;1.17;;;;;;;28.99;27.10;97708.50;5078838;28;20033;-76
2022/06/21 03:45:12;;;;;;;1.10;1.00;;;;;;;29.32;26.68;97715.00;5075744;28;20433;-76
2022/06/21 03:48:00;;;;;;;1.10;1.00;;;;;;;28.60;27.39;97707.53;5073903;28;20086;-76
2022/06/21 03:50:53;;;;;;;2.28;1.10;;;;;;;28.64;27.28;97713.00;5073529;28;20267;-76
2022/06/21 03:53:40;;;;;;;1.48;1.20;;;;;;;28.92;27.16;97711.66;5078178;28;20124;-76
2022/06/21 03:56:36;;;;;;;2.22;0.90;;;;;;;29.41;26.09;97714.16;5080097;28;20111;-76
2022/06/21 03:59:23;;;;;;;4.07;1.27;;;;;;;28.36;27.17;97708.59;5064858;28;20044;-76
2022/06/21 04:02:06;;;;;;;1.48;1.38;;;;;;;27.97;27.94;97728.03;5079243;28;20102;-76
2022/06/21 04:04:52;;;;;;;2.35;1.40;;;;;;;27.76;28.38;97726.13;5094249;28;20050;-76
2022/06/21 04:07:33;;;;;;;1.10;0.85;;;;;;;29.04;26.31;97724.03;5073958;28;20044;-77
2022/06/21 04:10:06;;;;;;;;;;;;;;;28.86;26.20;97724.88;5083061;28;20036;-77
2022/06/21 04:12:54;;;;;;;1.45;1.10;;;;;;;28.60;26.74;97727.31;5080312;28;20434;-77
2022/06/21 04:15:45;;;;;;;1.05;0.85;;;;;;;28.81;26.51;97724.72;5078831;28;20557;-77
2022/06/21 04:18:16;;;;;;;;;;;;;;;29.23;26.15;97728.38;5086070;28;20055;-77
2022/06/21 04:20:48;;;;;;;;;;;;;;;29.10;25.46;97720.06;5084915;28;19934;-77
2022/06/21 04:23:18;;;;;;;1.30;0.90;;;;;;;28.80;25.94;97726.78;5074461;28;20296;-78
2022/06/21 04:25:53;;;;;;;1.85;1.25;;;;;;;28.91;26.08;97715.78;5078918;28;20043;-78
2022/06/21 04:28:35;;;;;;;3.25;1.17;;;;;;;29.18;25.98;97724.16;5090172;28;20043;-78
2022/06/21 04:31:15;;;;;;;1.58;1.30;;;;;;;29.49;26.00;97723.09;5081990;28;20036;-79
2022/06/21 04:33:50;;;;;;;0.95;0.93;;;;;;;30.32;25.16;97720.00;5081007;28;20041;-78
2022/06/21 04:36:35;;;;;;;0.85;0.85;;;;;;;29.96;25.43;97709.00;5085070;28;20035;-78
2022/06/21 04:39:30;;;;;;;1.70;0.82;;;;;;;30.82;24.49;97711.69;5079599;28;20032;-78
2022/06/21 04:42:02;;;;;;;0.60;0.60;;;;;;;31.64;24.09;97715.13;5067145;28;20063;-77
2022/06/21 04:44:39;;;;;;;2.72;1.02;;;;;;;31.29;23.92;97706.59;5089150;28;20036;-77
2022/06/21 04:47:11;;;;;;;1.20;0.90;;;;;;;30.78;24.50;97712.66;5087627;28;20055;-79
2022/06/21 04:49:42;;;;;;;1.67;0.80;;;;;;;31.39;24.38;97712.94;5081809;28;22076;-78
2022/06/21 04:52:16;;;;;;;2.05;0.80;;;;;;;31.62;23.47;97705.53;5081792;28;20031;-79
2022/06/21 04:54:43;;;;;;;3.30;0.77;;;;;;;32.24;22.46;97705.06;5088874;28;20061;-79
2022/06/21 04:57:15;;;;;;;1.70;1.00;;;;;;;30.73;23.75;97706.91;5095147;28;20066;-77
2022/06/21 04:59:47;;;;;;;2.45;0.98;;;;;;;30.63;24.21;97723.22;5083386;28;20028;-77
2022/06/21 05:02:18;;;;;;;0.95;0.80;;;;;;;31.21;23.81;97713.94;5087746;28;20039;-76
2022/06/21 05:04:47;;;;;;;2.08;1.10;;;;;;;30.83;24.24;97710.41;5089226;28;20032;-78
2022/06/21 05:07:21;;;;;;;1.70;0.70;;;;;;;30.94;23.83;97722.78;5082944;28;20415;-76
2022/06/21 05:09:48;;;;;;;3.60;1.13;;;;;;;30.47;24.19;97728.56;5082514;28;20061;-75
2022/06/21 05:12:27;;;;;;;2.75;1.20;;;;;;;29.93;25.19;97729.75;5094444;28;20023;-76
2022/06/21 05:15:01;;;;;;;1.50;1.02;;;;;;;30.09;25.02;97713.13;5088551;28;20037;-76
2022/06/21 05:17:28;;;;;;;2.58;1.10;;;;;;;29.66;25.00;97721.44;5105141;27;20020;-75
2022/06/21 05:20:01;;;;;;;2.47;1.80;;;;;;;29.43;24.86;97739.91;5086959;28;20492;-75
2022/06/21 05:22:39;;;;;;;1.67;1.30;;;;;;;30.09;24.88;97741.44;5092843;28;20032;-76
2022/06/21 05:25:34;;;;;;;3.55;1.45;;;;;;;30.14;24.15;97731.50;5087705;28;20455;-75
2022/06/21 05:28:30;;;;;;;1.55;1.20;;;;;;;29.54;25.10;97731.72;5085765;28;20032;-75
2022/06/21 05:31:20;;;;;;;1.55;1.13;;;;;;;30.67;24.43;97729.47;5081277;28;20506;-76
2022/06/21 05:33:57;;;;;;;1.70;0.90;;;;;;;31.02;23.86;97732.44;5085504;28;20077;-77
2022/06/21 05:36:41;;;;;;;3.13;1.17;;;;;;;31.46;23.49;97732.38;5088511;28;20016;-77
2022/06/21 05:39:22;;;;;;;3.58;1.73;;;;;;;30.22;23.99;97729.88;5089933;28;20051;-77
2022/06/21 05:41:51;;;;;;;3.45;1.60;;;;;;;29.91;24.82;97737.97;5096516;28;20073;-79
2022/06/21 05:44:38;;;;;;;6.78;1.50;;;;;;;29.36;25.99;97740.25;5096232;28;20028;-77
2022/06/21 05:47:17;;;;;;;1.60;1.50;;;;;;;29.86;24.77;97747.91;5098200;28;20081;-77
2022/06/21 05:49:43;;;;;;;2.47;1.27;;;;;;;30.86;23.95;97735.72;5100798;28;20032;-77
2022/06/21 05:52:25;;;;;;;2.17;1.45;;;;;;;30.40;24.10;97738.22;5096656;28;20032;-77
2022/06/21 05:55:11;;;;;;;4.55;1.40;;;;;;;29.93;24.20;97743.91;5109099;28;20084;-77
2022/06/21 05:58:04;;;;;;;1.20;1.10;;;;;;;29.06;25.39;97741.28;5093872;28;20052;-77
2022/06/21 06:00:44;;;;;;;2.50;1.33;;;;;;;29.72;25.26;97739.31;5076542;28;20493;-77
2022/06/21 06:03:15;;;;;;;3.42;1.65;;;;;;;29.98;24.07;97737.59;5088862;28;20028;-79
2022/06/21 06:05:43;;;;;;;3.35;1.00;;;;;;;30.38;24.04;97740.00;5088889;28;20040;-78
2022/06/21 06:08:20;;;;;;;3.75;1.40;;;;;;;30.04;24.28;97736.44;5087484;28;20484;-78
2022/06/21 06:10:47;;;;;;;3.83;1.20;;;;;;;29.80;24.43;97729.22;5087520;28;20032;-77
2022/06/21 06:13:19;;;;;;;1.95;1.40;;;;;;;29.26;24.75;97736.72;5075306;28;20074;-77
2022/06/21 06:15:53;;;;;;;2.05;1.42;;;;;;;30.29;24.22;97737.22;5073045;28;20056;-77
2022/06/21 06:18:31;;;;;;;5.05;1.38;;;;;;;29.94;23.70;97734.16;5074008;28;20067;-77
2022/06/21 06:21:12;;;;;;;7.15;2.25;;;;;;;29.39;24.06;97742.94;5079824;28;20115;-77
2022/06/21 06:23:47;;;;;;;3.55;1.85;;;;;;;29.59;24.40;97748.03;5074932;28;20629;-76
2022/06/21 06:26:23;;;;;;;1.75;1.50;;;;;;;29.41;24.29;97733.97;5075063;28;20520;-77
2022/06/21 06:29:10;;;;;;;2.25;1.20;;;;;;;29.67;24.05;97742.78;5076770;28;20035;-76
2022/06/21 06:32:06;;;;;;;2.40;1.25;;;;;;;28.87;25.07;97732.09;5072394;28;20097;-79
2022/06/21 06:34:39;;;;;;;4.90;1.63;;;;;;;29.75;24.71;97735.50;5077062;28;20040;-77
2022/06/21 06:37:07;;;;;;;5.32;1.30;;;;;;;30.21;23.17;97736.00;5086292;28;20539;-77
2022/06/21 06:39:36;;;;;;;2.47;1.40;;;;;;;29.74;23.79;97736.78;5072050;28;20039;-76
2022/06/21 06:42:13;;;;;;;4.68;1.92;;;;;;;29.56;23.68;97740.50;5070591;28;20029;-76
2022/06/21 06:44:49;;;;;;;1.92;1.40;;;;;;;29.15;24.81;97742.06;5083782;28;20040;-77
2022/06/21 06:47:21;;;;;;;3.03;1.52;;;;;;;29.31;24.28;97741.69;5072164;28;20596;-77
2022/06/21 06:49:55;;;;;;;4.80;1.80;;;;;;;28.92;24.53;97745.59;5070236;28;20043;-77
2022/06/21 06:52:30;;;;;;;1.65;1.20;;;;;;;28.15;25.56;97747.06;5071248;28;20037;-77
2022/06/21 06:55:06;;;;;;;2.00;1.80;;;;;;;28.05;25.78;97751.16;5081620;28;20029;-78
2022/06/21 06:57:47;;;;;;;3.38;1.90;;;;;;;28.49;25.46;97746.75;5095847;28;20071;-77
2022/06/21 07:00:20;;;;;;;3.22;1.52;;;;;;;29.00;24.79;97746.03;5076773;28;20413;-78
2022/06/21 07:02:56;;;;;;;2.13;1.20;;;;;;;30.42;23.29;97738.53;5079288;28;20032;-77
2022/06/21 07:05:43;;;;;;;4.57;1.40;;;;;;;29.04;24.06;97736.13;5079002;28;20081;-77
2022/06/21 07:08:19;;;;;;;2.20;1.10;;;;;;;28.98;23.68;97732.41;5082746;28;20036;-78
2022/06/21 07:10:48;;;;;;;5.30;1.20;;;;;;;28.77;23.57;97724.91;5086123;28;20035;-77
2022/06/21 07:13:15;;;;;;;1.73;0.75;;;;;;;29.51;23.37;97724.19;5089039;28;20120;-77
2022/06/21 07:15:44;;;;;;;2.42;1.00;;;;;;;29.34;23.94;97731.47;5083762;28;20028;-76
2022/06/21 07:18:25;;;;;;;2.15;0.90;;;;;;;28.00;24.26;97732.78;5084194;28;20036;-77
2022/06/21 07:20:52;;;;;;;2.53;0.80;;;;;;;28.19;23.62;97721.50;5084287;28;20654;-76
2022/06/21 07:23:21;;;;;;;1.50;1.00;;;;;;;27.38;25.04;97737.00;5087473;28;20028;-76
2022/06/21 07:25:56;;;;;;;3.38;0.75;;;;;;;27.98;24.60;97737.31;5084893;28;20032;-77
2022/06/21 07:28:26;;;;;;;0.80;0.75;;;;;;;29.15;23.96;97735.63;5080276;28;20036;-77
2022/06/21 07:30:56;;;;;;;0.95;0.70;;;;;;;29.29;23.15;97732.91;5082225;28;20028;-78
2022/06/21 07:33:34;;;;;;;1.42;0.80;;;;;;;29.13;22.41;97730.44;5082058;28;20033;-78
2022/06/21 07:36:06;;;;;;;0.93;0.80;;;;;;;28.40;23.11;97732.59;5086338;28;20071;-77
2022/06/21 07:38:43;;;;;;;2.70;0.90;;;;;;;28.29;24.81;97752.06;5086883;28;20123;-77
2022/06/21 07:41:20;;;;;;;1.45;0.88;;;;;;;28.19;24.05;97752.56;5088238;28;20039;-77
2022/06/21 07:43:49;;;;;;;1.35;0.77;;;;;;;29.19;22.97;97756.06;5088106;28;20139;-76
2022/06/21 07:46:35;;;;;;;2.40;0.90;;;;;;;29.28;23.21;97742.69;5083126;28;20488;-77
2022/06/21 07:49:08;;;;;;;1.98;0.70;;;;;;;29.90;22.21;97739.22;5081167;28;20411;-77
2022/06/21 07:51:45;;;;;;;1.83;0.60;;;;;;;30.36;21.67;97746.16;5088616;28;20105;-77
2022/06/21 07:54:26;;;;;;;1.73;0.52;;;;;;;29.72;21.90;97747.78;5089118;28;20430;-77
2022/06/21 07:57:14;;;;;;;2.65;0.70;;;;;;;29.88;22.05;97751.03;5082092;28;20137;-77
2022/06/21 07:59:47;;;;;;;1.95;0.70;;;;;;;29.14;21.86;97751.81;5085133;28;20051;-78
2022/06/21 08:08:00;;;;;;;1.13;0.60;;;;;;;28.46;22.37;97775.94;5081754;28;20055;-78
2022/06/21 08:10:38;;;;;;;0.77;0.40;;;;;;;29.00;20.73;97757.34;5073146;28;20032;-78
2022/06/21 08:13:04;;;;;;;1.20;0.45;;;;;;;28.87;21.34;97762.41;5076789;28;20399;-77
2022/06/21 08:15:40;;;;;;;0.98;0.50;;;;;;;28.54;21.53;97736.84;5075084;28;20028;-78
2022/06/21 08:18:37;;;;;;;0.47;0.35;;;;;;;27.94;22.81;97771.31;5073780;28;20480;-77
2022/06/21 08:21:12;;;;;;;2.75;0.80;;;;;;;28.27;22.41;97765.88;5078738;28;20179;-78
2022/06/21 08:23:49;;;;;;;2.45;0.50;;;;;;;27.61;23.66;97761.06;5082764;28;20031;-77
2022/06/21 08:26:27;;;;;;;1.70;0.60;;;;;;;28.86;22.27;97752.34;5081044;28;20040;-77
2022/06/21 08:29:08;;;;;;;0.47;0.40;;;;;;;29.26;22.05;97755.72;5076405;28;20033;-77
2022/06/21 08:31:35;;;;;;;;;;;;;;;28.08;22.42;97762.25;5078236;28;20028;-77
2022/06/21 08:34:07;;;;;;;1.13;0.40;;;;;;;27.67;23.18;97771.25;5081944;28;19924;-78
2022/06/21 08:36:37;;;;;;;2.60;0.38;;;;;;;29.05;21.60;97759.53;5079906;28;20039;-77
2022/06/21 08:39:27;;;;;;;0.40;0.40;;;;;;;28.25;22.34;97764.78;5073611;28;20044;-77
2022/06/21 08:42:14;;;;;;;3.42;0.50;;;;;;;29.21;21.80;97760.00;5054481;28;20036;-78
2022/06/21 08:48:02;;;;;;;1.23;0.30;;;;;;;29.65;21.93;97765.91;5073220;28;20186;-77
2022/06/21 08:51:06;;;;;;;0.30;0.30;;;;;;;28.37;22.13;97775.16;5083888;28;20031;-78
2022/06/21 08:53:53;;;;;;;2.92;0.40;;;;;;;28.59;21.93;97772.97;5075397;28;20058;-78
2022/06/21 08:56:50;;;;;;;2.20;0.40;;;;;;;28.31;23.09;97772.16;5074789;28;20377;-77
2022/06/21 08:59:41;;;;;;;1.45;0.40;;;;;;;28.58;21.90;97793.97;5077879;28;20415;-79
2022/06/21 09:02:10;;;;;;;1.52;0.50;;;;;;;27.18;23.40;97779.66;5090901;27;20135;-79
2022/06/21 09:04:48;;;;;;;0.40;0.40;;;;;;;27.19;23.64;97791.72;5076759;28;20032;-78
2022/06/21 09:07:29;;;;;;;4.28;0.50;;;;;;;28.02;23.03;97783.91;5079560;28;20040;-79
2022/06/21 09:09:58;;;;;;;0.77;0.38;;;;;;;28.23;22.34;97795.53;5073192;28;20028;-79
2022/06/21 09:12:49;;;;;;;1.48;0.68;;;;;;;29.13;21.36;97772.84;5069081;28;20035;-78
2022/06/21 09:15:25;;;;;;;0.30;0.20;;;;;;;29.16;21.50;97796.56;5095282;27;20071;-78
2022/06/21 09:18:29;;;;;;;3.35;0.40;;;;;;;27.96;23.18;97805.50;5078762;28;20032;-79
2022/06/21 09:21:04;;;;;;;0.73;0.30;;;;;;;29.21;21.49;97790.31;5072436;28;20029;-80
2022/06/21 09:23:37;;;;;;;1.95;0.40;;;;;;;28.98;21.71;97793.78;5078695;28;20058;-78
2022/06/21 09:26:16;;;;;;;0.75;0.30;;;;;;;28.96;22.03;97774.50;5070827;28;20040;-78
2022/06/21 09:28:53;;;;;;;0.20;0.20;;;;;;;29.44;21.16;97786.75;5087368;28;20077;-78
2022/06/21 09:31:38;;;;;;;3.25;0.28;;;;;;;29.09;21.20;97788.41;5085577;28;20446;-76
2022/06/21 09:34:04;;;;;;;0.75;0.30;;;;;;;29.36;21.62;97806.09;5093121;28;20032;-76
2022/06/21 09:36:48;;;;;;;1.67;0.40;;;;;;;28.16;22.80;97784.53;5097630;28;20043;-77
2022/06/21 09:39:23;;;;;;;1.10;0.57;;;;;;;29.23;21.75;97797.06;5085353;28;20503;-79
2022/06/21 09:42:04;;;;;;;1.23;0.50;;;;;;;29.16;21.56;97788.09;5091992;28;20110;-77
2022/06/21 09:44:35;;;;;;;0.73;0.20;;;;;;;30.58;21.53;97791.91;5081177;28;20488;-76
2022/06/21 09:47:01;;;;;;;;;;;;;;;30.34;20.72;97784.72;5093784;28;20032;-76
2022/06/21 09:49:37;;;;;;;3.28;0.35;;;;;;;30.01;20.54;97798.94;5078886;28;19970;-77
2022/06/21 09:52:30;;;;;;;1.60;0.32;;;;;;;29.30;21.78;97798.75;5095357;27;20086;-77
2022/06/21 09:55:17;;;;;;;1.75;0.50;;;;;;;29.98;20.62;97785.72;5084070;28;20039;-78
2022/06/21 09:58:15;;;;;;;2.28;0.30;;;;;;;28.88;21.18;97781.72;5085744;28;20053;-77
2022/06/21 10:00:48;;;;;;;1.35;0.40;;;;;;;28.52;21.93;97812.81;5091620;28;20434;-78
2022/06/21 10:03:38;;;;;;;4.47;0.98;;;;;;;28.80;21.88;97808.72;5090186;28;20565;-79
2022/06/21 10:06:19;;;;;;;1.90;0.30;;;;;;;29.83;20.57;97808.28;5092203;28;20066;-79
2022/06/21 10:09:13;;;;;;;0.35;0.22;;;;;;;29.15;21.23;97800.66;5082795;28;20437;-78
2022/06/21 10:12:06;;;;;;;0.88;0.30;;;;;;;29.98;20.94;97800.66;5078045;28;20035;-78
2022/06/21 10:14:44;;;;;;;0.65;0.30;;;;;;;29.08;21.65;97798.94;5094500;28;20028;-78
2022/06/21 10:17:47;;;;;;;3.65;0.40;;;;;;;29.06;21.49;97790.16;5080421;28;20082;-78
2022/06/21 10:20:28;;;;;;;2.70;0.47;;;;;;;29.02;21.99;97797.22;5087892;28;20086;-80
2022/06/21 10:23:32;;;;;;;0.85;0.38;;;;;;;28.98;21.93;97790.97;5080330;28;20099;-79
2022/06/21 10:26:16;;;;;;;0.68;0.20;;;;;;;30.35;21.10;97804.06;5072965;28;20564;-81
2022/06/21 10:29:11;;;;;;;0.57;0.35;;;;;;;29.46;21.61;97806.88;5078658;28;20483;-80
2022/06/21 10:31:55;;;;;;;1.42;0.45;;;;;;;29.97;21.40;97809.63;5109099;28;20035;-78
2022/06/21 10:34:49;;;;;;;0.80;0.40;;;;;;;30.20;20.72;97802.41;5080042;28;20044;-78
2022/06/21 10:37:30;;;;;;;1.23;0.45;;;;;;;30.57;20.32;97810.16;5100540;28;20036;-79
2022/06/21 10:40:33;;;;;;;0.40;0.22;;;;;;;30.32;20.90;97812.69;5105868;28;20036;-78
2022/06/21 10:43:32;;;;;;;0.52;0.30;;;;;;;30.50;20.82;97810.53;5081571;28;20032;-78
2022/06/21 10:46:04;;;;;;;0.35;0.30;;;;;;;29.63;21.80;97804.44;5084122;27;20103;-80
2022/06/21 10:49:06;;;;;;;0.77;0.50;;;;;;;29.92;21.16;97810.31;5097673;28;20143;-80
2022/06/21 10:51:42;;;;;;;2.42;0.40;;;;;;;30.37;20.71;97814.91;5104875;27;20396;-80
2022/06/21 10:54:48;;;;;;;1.85;0.40;;;;;;;30.62;20.20;97818.00;5097672;28;20033;-80
2022/06/21 10:57:51;;;;;;;0.50;0.28;;;;;;;30.99;20.34;97806.38;5090585;28;20119;-79
2022/06/21 11:03:35;;;;;;;3.45;0.30;;;;;;;31.52;19.91;97820.47;5092851;28;20050;-79
2022/06/21 11:06:03;;;;;;;0.38;0.38;;;;;;;31.37;19.51;97823.28;5086566;28;20507;-78
2022/06/21 11:08:44;;;;;;;1.83;0.40;;;;;;;30.84;19.61;97814.03;5094556;28;20036;-79
2022/06/21 11:11:27;;;;;;;0.30;0.30;;;;;;;31.17;20.01;97821.16;5096437;28;20035;-77
2022/06/21 11:14:06;;;;;;;0.30;0.30;;;;;;;30.75;19.74;97815.69;5089744;28;20067;-78
2022/06/21 11:16:53;;;;;;;0.57;0.43;;;;;;;29.96;20.37;97814.53;5080687;28;20075;-78
2022/06/21 11:19:24;;;;;;;0.40;0.20;;;;;;;29.93;20.38;97817.53;5087812;28;20538;-77
2022/06/21 11:21:59;;;;;;;0.20;0.20;;;;;;;30.57;20.50;97821.50;5091705;28;20032;-77
2022/06/21 11:24:50;;;;;;;0.60;0.20;;;;;;;30.93;19.79;97826.09;5082830;28;20081;-77
2022/06/21 11:27:41;;;;;;;0.52;0.20;;;;;;;31.18;19.76;97821.94;5092727;28;20032;-77
2022/06/21 11:30:40;;;;;;;0.40;0.30;;;;;;;29.91;20.53;97826.50;5077695;28;20392;-77
2022/06/21 11:33:21;;;;;;;0.20;0.20;;;;;;;31.08;19.58;97826.13;5093754;28;20546;-77
2022/06/21 11:35:52;;;;;;;1.08;0.30;;;;;;;31.12;19.67;97826.72;5077516;28;20058;-78
2022/06/21 11:38:19;;;;;;;0.20;0.20;;;;;;;31.62;19.58;97821.94;5095945;28;20043;-77
2022/06/21 11:40:55;;;;;;;0.85;0.20;;;;;;;31.79;19.25;97808.75;5095030;28;20107;-77
2022/06/21 11:43:28;;;;;;;4.22;0.20;;;;;;;31.52;19.31;97814.78;5075831;28;20029;-77
2022/06/21 11:46:10;;;;;;;0.40;0.22;;;;;;;31.45;19.19;97809.50;5075775;28;20488;-77
2022/06/21 11:49:05;;;;;;;0.28;0.20;;;;;;;31.56;19.43;97806.84;5075496;28;20460;-77
2022/06/21 11:52:19;;;;;;;1.75;0.43;;;;;;;30.75;20.24;97826.25;5091144;28;20048;-77
2022/06/21 11:55:09;;;;;;;0.65;0.20;;;;;;;31.21;19.74;97812.41;5033444;28;20492;-77
2022/06/21 11:58:00;;;;;;;0.30;0.28;;;;;;;31.71;19.65;97830.31;5075858;28;20488;-77
2022/06/21 12:01:07;;;;;;;0.93;0.30;;;;;;;31.38;19.74;97810.66;5076075;28;20107;-77
2022/06/21 12:03:40;;;;;;;2.97;0.30;;;;;;;30.92;20.09;97818.88;5075202;28;20038;-78
2022/06/21 12:06:18;;;;;;;5.88;0.40;;;;;;;29.82;20.75;97811.63;5075303;28;20029;-78
2022/06/21 12:08:58;;;;;;;0.63;0.30;;;;;;;29.94;20.65;97819.09;5075392;28;20040;-78
2022/06/21 12:11:39;;;;;;;1.23;0.25;;;;;;;29.86;21.19;97829.19;5074314;28;20071;-77
2022/06/21 12:14:42;;;;;;;1.27;0.40;;;;;;;28.81;21.91;97815.16;5075144;28;20024;-78
2022/06/21 12:17:20;;;;;;;0.82;0.40;;;;;;;29.40;21.67;97823.72;5068232;28;20437;-78
2022/06/21 12:19:56;;;;;;;5.78;0.30;;;;;;;29.33;21.65;97821.22;5074876;28;20107;-77
2022/06/21 12:22:32;;;;;;;1.73;0.40;;;;;;;29.18;21.56;97816.69;5074652;28;20082;-78
2022/06/21 12:24:58;;;;;;;0.68;0.57;;;;;;;29.43;21.21;97813.47;5076656;28;20027;-77
2022/06/21 12:27:25;;;;;;;1.23;0.40;;;;;;;30.05;21.00;97811.63;5095412;28;20075;-77
2022/06/21 12:29:59;;;;;;;0.50;0.25;;;;;;;30.45;20.88;97819.72;5095082;28;20059;-78
2022/06/21 12:32:27;;;;;;;0.30;0.30;;;;;;;30.26;21.49;97818.25;5086625;28;20039;-77
2022/06/21 12:35:01;;;;;;;0.55;0.30;;;;;;;30.36;20.96;97822.63;5074594;28;20028;-77
2022/06/21 12:37:27;;;;;;;0.47;0.30;;;;;;;31.06;20.13;97801.09;5074387;28;20029;-77
2022/06/21 12:40:21;;;;;;;6.40;0.40;;;;;;;30.35;20.64;97818.22;5097725;28;20032;-78